sensor_id;sensor_type;location;lat;lon;timestamp;P1;durP1;ratioP1;P2;durP2;ratioP2
15635;SDS011;7917;50.818;6.972;2023-04-29T00:02:05;16.52;;;11.85;;
15635;SDS011;7917;50.818;6.972;2023-04-29T00:04:32;15.93;;;11.95;;
15635;SDS011;7917;50.818;6.972;2023-04-29T00:06:59;18.60;;;13.30;;
15635;SDS011;7917;50.818;6.972;2023-04-29T00:09:26;18.90;;;13.48;;
15635;SDS011;7917;50.818;6.972;2023-04-29T00:11:54;21.73;;;14.75;;
15635;SDS011;7917;50.818;6.972;2023-04-29T00:14:23;19.20;;;14.57;;
15635;SDS011;7917;50.818;6.972;2023-04-29T00:16:51;22.25;;;15.30;;
15635;SDS011;7917;50.818;6.972;2023-04-29T00:19:19;21.98;;;15.63;;
15635;SDS011;7917;50.818;6.972;2023-04-29T00:21:46;21.42;;;15.35;;
15635;SDS011;7917;50.818;6.972;2023-04-29T00:24:13;22.27;;;15.55;;
15635;SDS011;7917;50.818;6.972;2023-04-29T00:26:40;21.27;;;15.38;;
15635;SDS011;7917;50.818;6.972;2023-04-29T00:29:07;20.52;;;14.65;;
15635;SDS011;7917;50.818;6.972;2023-04-29T00:31:34;25.33;;;15.73;;
15635;SDS011;7917;50.818;6.972;2023-04-29T00:34:02;22.40;;;15.43;;
15635;SDS011;7917;50.818;6.972;2023-04-29T00:36:29;21.05;;;15.40;;
15635;SDS011;7917;50.818;6.972;2023-04-29T00:38:56;21.92;;;15.13;;
15635;SDS011;7917;50.818;6.972;2023-04-29T00:41:23;23.17;;;15.82;;
15635;SDS011;7917;50.818;6.972;2023-04-29T00:43:51;24.15;;;15.93;;
15635;SDS011;7917;50.818;6.972;2023-04-29T00:46:18;24.13;;;15.80;;
15635;SDS011;7917;50.818;6.972;2023-04-29T00:48:45;24.63;;;16.15;;
15635;SDS011;7917;50.818;6.972;2023-04-29T00:51:12;23.63;;;16.30;;
15635;SDS011;7917;50.818;6.972;2023-04-29T00:53:39;25.15;;;17.02;;
15635;SDS011;7917;50.818;6.972;2023-04-29T00:56:07;29.67;;;17.65;;
15635;SDS011;7917;50.818;6.972;2023-04-29T00:58:34;25.08;;;16.17;;
15635;SDS011;7917;50.818;6.972;2023-04-29T01:01:03;25.42;;;16.20;;
15635;SDS011;7917;50.818;6.972;2023-04-29T01:03:31;24.05;;;16.17;;
15635;SDS011;7917;50.818;6.972;2023-04-29T01:06:01;25.27;;;16.35;;
15635;SDS011;7917;50.818;6.972;2023-04-29T01:08:51;23.40;;;15.30;;
15635;SDS011;7917;50.818;6.972;2023-04-29T01:11:33;31.15;;;17.35;;
15635;SDS011;7917;50.818;6.972;2023-04-29T01:14:04;25.73;;;15.93;;
15635;SDS011;7917;50.818;6.972;2023-04-29T01:16:36;24.33;;;16.20;;
15635;SDS011;7917;50.818;6.972;2023-04-29T01:19:09;25.27;;;15.90;;
15635;SDS011;7917;50.818;6.972;2023-04-29T01:21:47;21.80;;;14.70;;
15635;SDS011;7917;50.818;6.972;2023-04-29T01:24:15;21.38;;;13.88;;
15635;SDS011;7917;50.818;6.972;2023-04-29T01:26:42;22.27;;;12.48;;
15635;SDS011;7917;50.818;6.972;2023-04-29T01:29:21;17.77;;;11.82;;
15635;SDS011;7917;50.818;6.972;2023-04-29T01:31:55;17.20;;;11.93;;
15635;SDS011;7917;50.818;6.972;2023-04-29T01:34:29;17.45;;;12.32;;
15635;SDS011;7917;50.818;6.972;2023-04-29T01:37:08;20.38;;;12.82;;
15635;SDS011;7917;50.818;6.972;2023-04-29T01:39:44;21.60;;;13.55;;
15635;SDS011;7917;50.818;6.972;2023-04-29T01:42:14;21.08;;;13.63;;
15635;SDS011;7917;50.818;6.972;2023-04-29T01:44:48;24.58;;;14.85;;
15635;SDS011;7917;50.818;6.972;2023-04-29T01:47:16;22.88;;;14.88;;
15635;SDS011;7917;50.818;6.972;2023-04-29T01:49:45;23.50;;;14.93;;
15635;SDS011;7917;50.818;6.972;2023-04-29T01:52:14;26.02;;;15.68;;
15635;SDS011;7917;50.818;6.972;2023-04-29T01:54:41;27.52;;;16.55;;
15635;SDS011;7917;50.818;6.972;2023-04-29T01:57:08;29.45;;;17.80;;
15635;SDS011;7917;50.818;6.972;2023-04-29T01:59:35;29.25;;;18.08;;
15635;SDS011;7917;50.818;6.972;2023-04-29T02:02:02;31.52;;;18.90;;
15635;SDS011;7917;50.818;6.972;2023-04-29T02:04:29;29.73;;;18.50;;
15635;SDS011;7917;50.818;6.972;2023-04-29T02:06:57;30.30;;;18.98;;
15635;SDS011;7917;50.818;6.972;2023-04-29T02:09:24;39.22;;;22.55;;
15635;SDS011;7917;50.818;6.972;2023-04-29T02:11:52;34.80;;;20.50;;
15635;SDS011;7917;50.818;6.972;2023-04-29T02:14:25;36.53;;;21.33;;
15635;SDS011;7917;50.818;6.972;2023-04-29T02:16:52;37.15;;;22.77;;
15635;SDS011;7917;50.818;6.972;2023-04-29T02:19:18;36.88;;;23.60;;
15635;SDS011;7917;50.818;6.972;2023-04-29T02:21:46;38.28;;;23.65;;
15635;SDS011;7917;50.818;6.972;2023-04-29T02:24:12;36.72;;;20.95;;
15635;SDS011;7917;50.818;6.972;2023-04-29T02:26:39;35.22;;;23.02;;
15635;SDS011;7917;50.818;6.972;2023-04-29T02:29:14;37.38;;;21.80;;
15635;SDS011;7917;50.818;6.972;2023-04-29T02:31:41;32.97;;;21.35;;
15635;SDS011;7917;50.818;6.972;2023-04-29T02:34:08;40.42;;;22.95;;
15635;SDS011;7917;50.818;6.972;2023-04-29T02:36:35;34.50;;;21.88;;
15635;SDS011;7917;50.818;6.972;2023-04-29T02:39:01;37.75;;;23.13;;
15635;SDS011;7917;50.818;6.972;2023-04-29T02:41:29;36.40;;;22.42;;
15635;SDS011;7917;50.818;6.972;2023-04-29T02:43:56;37.28;;;22.17;;
15635;SDS011;7917;50.818;6.972;2023-04-29T02:46:23;38.90;;;23.70;;
15635;SDS011;7917;50.818;6.972;2023-04-29T02:48:50;35.15;;;23.50;;
15635;SDS011;7917;50.818;6.972;2023-04-29T02:51:17;38.50;;;23.20;;
15635;SDS011;7917;50.818;6.972;2023-04-29T02:53:44;35.88;;;23.10;;
15635;SDS011;7917;50.818;6.972;2023-04-29T02:56:11;35.35;;;21.65;;
15635;SDS011;7917;50.818;6.972;2023-04-29T02:58:38;36.08;;;23.27;;
15635;SDS011;7917;50.818;6.972;2023-04-29T03:01:25;38.53;;;23.83;;
15635;SDS011;7917;50.818;6.972;2023-04-29T03:03:52;41.10;;;23.30;;
15635;SDS011;7917;50.818;6.972;2023-04-29T03:06:18;37.78;;;24.65;;
15635;SDS011;7917;50.818;6.972;2023-04-29T03:08:45;43.70;;;26.67;;
15635;SDS011;7917;50.818;6.972;2023-04-29T03:11:12;41.65;;;25.10;;
15635;SDS011;7917;50.818;6.972;2023-04-29T03:13:42;38.55;;;23.70;;
15635;SDS011;7917;50.818;6.972;2023-04-29T03:16:12;41.65;;;25.58;;
15635;SDS011;7917;50.818;6.972;2023-04-29T03:18:41;45.97;;;27.23;;
15635;SDS011;7917;50.818;6.972;2023-04-29T03:21:08;46.72;;;26.17;;
15635;SDS011;7917;50.818;6.972;2023-04-29T03:23:35;44.75;;;26.00;;
15635;SDS011;7917;50.818;6.972;2023-04-29T03:26:06;48.88;;;27.77;;
15635;SDS011;7917;50.818;6.972;2023-04-29T03:28:33;45.78;;;27.35;;
15635;SDS011;7917;50.818;6.972;2023-04-29T03:30:59;48.15;;;29.15;;
15635;SDS011;7917;50.818;6.972;2023-04-29T03:33:26;50.80;;;29.73;;
15635;SDS011;7917;50.818;6.972;2023-04-29T03:35:54;53.03;;;29.45;;
15635;SDS011;7917;50.818;6.972;2023-04-29T03:38:21;50.85;;;29.60;;
15635;SDS011;7917;50.818;6.972;2023-04-29T03:40:47;53.15;;;30.15;;
15635;SDS011;7917;50.818;6.972;2023-04-29T03:43:14;50.92;;;30.80;;
15635;SDS011;7917;50.818;6.972;2023-04-29T03:45:41;55.97;;;32.38;;
15635;SDS011;7917;50.818;6.972;2023-04-29T03:48:08;61.50;;;33.15;;
15635;SDS011;7917;50.818;6.972;2023-04-29T03:50:37;62.20;;;32.85;;
15635;SDS011;7917;50.818;6.972;2023-04-29T03:53:07;60.78;;;33.90;;
15635;SDS011;7917;50.818;6.972;2023-04-29T03:55:34;65.32;;;36.55;;
15635;SDS011;7917;50.818;6.972;2023-04-29T03:58:07;66.05;;;36.45;;
15635;SDS011;7917;50.818;6.972;2023-04-29T04:00:33;65.30;;;35.33;;
15635;SDS011;7917;50.818;6.972;2023-04-29T04:03:00;82.65;;;38.90;;
15635;SDS011;7917;50.818;6.972;2023-04-29T04:05:27;73.38;;;39.13;;
15635;SDS011;7917;50.818;6.972;2023-04-29T04:07:53;81.57;;;39.50;;
15635;SDS011;7917;50.818;6.972;2023-04-29T04:10:21;78.88;;;40.28;;
15635;SDS011;7917;50.818;6.972;2023-04-29T04:12:48;88.03;;;43.20;;
15635;SDS011;7917;50.818;6.972;2023-04-29T04:15:15;95.55;;;44.08;;
15635;SDS011;7917;50.818;6.972;2023-04-29T04:17:42;90.13;;;42.30;;
15635;SDS011;7917;50.818;6.972;2023-04-29T04:20:09;99.22;;;45.33;;
15635;SDS011;7917;50.818;6.972;2023-04-29T04:22:37;100.97;;;45.20;;
15635;SDS011;7917;50.818;6.972;2023-04-29T04:25:04;101.75;;;44.72;;
15635;SDS011;7917;50.818;6.972;2023-04-29T04:27:33;111.05;;;48.50;;
15635;SDS011;7917;50.818;6.972;2023-04-29T04:29:59;113.32;;;49.47;;
15635;SDS011;7917;50.818;6.972;2023-04-29T04:32:27;107.60;;;48.20;;
15635;SDS011;7917;50.818;6.972;2023-04-29T04:34:54;106.80;;;48.08;;
15635;SDS011;7917;50.818;6.972;2023-04-29T04:37:24;117.13;;;50.67;;
15635;SDS011;7917;50.818;6.972;2023-04-29T04:39:51;95.80;;;40.00;;
15635;SDS011;7917;50.818;6.972;2023-04-29T04:42:17;95.03;;;40.17;;
15635;SDS011;7917;50.818;6.972;2023-04-29T04:44:45;93.45;;;38.13;;
15635;SDS011;7917;50.818;6.972;2023-04-29T04:47:12;91.65;;;36.05;;
15635;SDS011;7917;50.818;6.972;2023-04-29T04:49:38;87.40;;;35.47;;
15635;SDS011;7917;50.818;6.972;2023-04-29T04:52:05;89.45;;;37.47;;
15635;SDS011;7917;50.818;6.972;2023-04-29T04:54:32;89.30;;;34.95;;
15635;SDS011;7917;50.818;6.972;2023-04-29T04:56:59;87.50;;;35.72;;
15635;SDS011;7917;50.818;6.972;2023-04-29T04:59:29;93.68;;;36.78;;
15635;SDS011;7917;50.818;6.972;2023-04-29T05:01:56;90.53;;;36.50;;
15635;SDS011;7917;50.818;6.972;2023-04-29T05:04:23;92.68;;;36.55;;
15635;SDS011;7917;50.818;6.972;2023-04-29T05:06:50;98.88;;;36.58;;
15635;SDS011;7917;50.818;6.972;2023-04-29T05:09:17;91.22;;;36.53;;
15635;SDS011;7917;50.818;6.972;2023-04-29T05:11:43;97.57;;;35.55;;
15635;SDS011;7917;50.818;6.972;2023-04-29T05:14:10;83.35;;;33.92;;
15635;SDS011;7917;50.818;6.972;2023-04-29T05:16:37;93.75;;;37.17;;
15635;SDS011;7917;50.818;6.972;2023-04-29T05:19:05;88.35;;;35.25;;
15635;SDS011;7917;50.818;6.972;2023-04-29T05:21:33;73.30;;;34.30;;
15635;SDS011;7917;50.818;6.972;2023-04-29T05:24:00;90.72;;;35.53;;
15635;SDS011;7917;50.818;6.972;2023-04-29T05:26:27;84.40;;;34.85;;
15635;SDS011;7917;50.818;6.972;2023-04-29T05:28:54;86.72;;;36.13;;
15635;SDS011;7917;50.818;6.972;2023-04-29T05:31:21;88.13;;;38.28;;
15635;SDS011;7917;50.818;6.972;2023-04-29T05:33:47;81.43;;;34.97;;
15635;SDS011;7917;50.818;6.972;2023-04-29T05:36:15;70.40;;;32.28;;
15635;SDS011;7917;50.818;6.972;2023-04-29T05:38:41;78.28;;;34.72;;
15635;SDS011;7917;50.818;6.972;2023-04-29T05:41:09;81.03;;;32.60;;
15635;SDS011;7917;50.818;6.972;2023-04-29T05:43:36;78.00;;;33.17;;
15635;SDS011;7917;50.818;6.972;2023-04-29T05:46:06;78.32;;;33.33;;
15635;SDS011;7917;50.818;6.972;2023-04-29T05:48:32;73.68;;;31.40;;
15635;SDS011;7917;50.818;6.972;2023-04-29T05:50:59;68.10;;;31.00;;
15635;SDS011;7917;50.818;6.972;2023-04-29T05:53:27;62.65;;;29.10;;
15635;SDS011;7917;50.818;6.972;2023-04-29T05:55:53;58.28;;;28.48;;
15635;SDS011;7917;50.818;6.972;2023-04-29T05:58:21;52.53;;;27.05;;
15635;SDS011;7917;50.818;6.972;2023-04-29T06:00:48;60.63;;;26.52;;
15635;SDS011;7917;50.818;6.972;2023-04-29T06:03:15;49.25;;;25.35;;
15635;SDS011;7917;50.818;6.972;2023-04-29T06:05:41;49.00;;;24.08;;
15635;SDS011;7917;50.818;6.972;2023-04-29T06:08:08;47.40;;;23.38;;
15635;SDS011;7917;50.818;6.972;2023-04-29T06:10:36;44.47;;;23.08;;
15635;SDS011;7917;50.818;6.972;2023-04-29T06:13:02;45.75;;;22.35;;
15635;SDS011;7917;50.818;6.972;2023-04-29T06:15:29;38.72;;;22.55;;
15635;SDS011;7917;50.818;6.972;2023-04-29T06:17:56;35.33;;;20.42;;
15635;SDS011;7917;50.818;6.972;2023-04-29T06:20:23;37.10;;;20.33;;
15635;SDS011;7917;50.818;6.972;2023-04-29T06:22:50;33.53;;;19.08;;
15635;SDS011;7917;50.818;6.972;2023-04-29T06:25:17;32.88;;;19.30;;
15635;SDS011;7917;50.818;6.972;2023-04-29T06:27:44;31.63;;;19.60;;
15635;SDS011;7917;50.818;6.972;2023-04-29T06:30:12;33.63;;;19.65;;
15635;SDS011;7917;50.818;6.972;2023-04-29T06:32:38;31.20;;;18.90;;
15635;SDS011;7917;50.818;6.972;2023-04-29T06:35:05;27.42;;;16.80;;
15635;SDS011;7917;50.818;6.972;2023-04-29T06:37:33;28.85;;;16.75;;
15635;SDS011;7917;50.818;6.972;2023-04-29T06:39:59;31.33;;;16.95;;
15635;SDS011;7917;50.818;6.972;2023-04-29T06:42:26;25.77;;;16.15;;
15635;SDS011;7917;50.818;6.972;2023-04-29T06:44:54;25.08;;;16.23;;
15635;SDS011;7917;50.818;6.972;2023-04-29T06:47:20;25.35;;;16.00;;
15635;SDS011;7917;50.818;6.972;2023-04-29T06:49:47;25.17;;;15.95;;
15635;SDS011;7917;50.818;6.972;2023-04-29T06:52:14;26.63;;;16.25;;
15635;SDS011;7917;50.818;6.972;2023-04-29T06:54:41;23.92;;;14.63;;
15635;SDS011;7917;50.818;6.972;2023-04-29T06:57:11;25.98;;;16.85;;
15635;SDS011;7917;50.818;6.972;2023-04-29T06:59:38;25.02;;;14.68;;
15635;SDS011;7917;50.818;6.972;2023-04-29T07:02:05;22.45;;;14.10;;
15635;SDS011;7917;50.818;6.972;2023-04-29T07:04:32;25.25;;;15.73;;
15635;SDS011;7917;50.818;6.972;2023-04-29T07:07:01;24.48;;;15.55;;
15635;SDS011;7917;50.818;6.972;2023-04-29T07:09:28;27.60;;;15.95;;
15635;SDS011;7917;50.818;6.972;2023-04-29T07:11:55;29.50;;;18.02;;
15635;SDS011;7917;50.818;6.972;2023-04-29T07:14:22;32.33;;;19.60;;
15635;SDS011;7917;50.818;6.972;2023-04-29T07:16:52;31.92;;;18.83;;
15635;SDS011;7917;50.818;6.972;2023-04-29T07:19:19;27.13;;;18.60;;
15635;SDS011;7917;50.818;6.972;2023-04-29T07:21:46;27.85;;;17.48;;
15635;SDS011;7917;50.818;6.972;2023-04-29T07:24:13;24.42;;;16.98;;
15635;SDS011;7917;50.818;6.972;2023-04-29T07:26:41;23.90;;;16.65;;
15635;SDS011;7917;50.818;6.972;2023-04-29T07:29:09;27.17;;;17.05;;
15635;SDS011;7917;50.818;6.972;2023-04-29T07:31:35;26.65;;;17.15;;
15635;SDS011;7917;50.818;6.972;2023-04-29T07:34:02;24.70;;;16.00;;
15635;SDS011;7917;50.818;6.972;2023-04-29T07:36:30;23.17;;;15.23;;
15635;SDS011;7917;50.818;6.972;2023-04-29T07:38:57;23.13;;;15.52;;
15635;SDS011;7917;50.818;6.972;2023-04-29T07:41:24;26.90;;;16.55;;
15635;SDS011;7917;50.818;6.972;2023-04-29T07:43:50;26.65;;;16.13;;
15635;SDS011;7917;50.818;6.972;2023-04-29T07:46:17;24.48;;;15.85;;
15635;SDS011;7917;50.818;6.972;2023-04-29T07:48:44;26.85;;;15.88;;
15635;SDS011;7917;50.818;6.972;2023-04-29T07:51:11;27.23;;;16.55;;
15635;SDS011;7917;50.818;6.972;2023-04-29T07:53:39;25.75;;;15.25;;
15635;SDS011;7917;50.818;6.972;2023-04-29T07:56:07;23.10;;;15.35;;
15635;SDS011;7917;50.818;6.972;2023-04-29T07:58:34;23.58;;;14.98;;
15635;SDS011;7917;50.818;6.972;2023-04-29T08:01:04;21.67;;;15.43;;
15635;SDS011;7917;50.818;6.972;2023-04-29T08:03:31;23.15;;;15.00;;
15635;SDS011;7917;50.818;6.972;2023-04-29T08:06:01;23.52;;;15.23;;
15635;SDS011;7917;50.818;6.972;2023-04-29T08:08:28;23.35;;;15.88;;
15635;SDS011;7917;50.818;6.972;2023-04-29T08:10:56;22.58;;;15.25;;
15635;SDS011;7917;50.818;6.972;2023-04-29T08:13:23;22.30;;;16.17;;
15635;SDS011;7917;50.818;6.972;2023-04-29T08:15:50;22.75;;;15.93;;
15635;SDS011;7917;50.818;6.972;2023-04-29T08:18:17;21.33;;;15.98;;
15635;SDS011;7917;50.818;6.972;2023-04-29T08:20:46;25.33;;;16.23;;
15635;SDS011;7917;50.818;6.972;2023-04-29T08:23:14;22.33;;;15.40;;
15635;SDS011;7917;50.818;6.972;2023-04-29T08:25:41;25.63;;;16.85;;
15635;SDS011;7917;50.818;6.972;2023-04-29T08:28:09;23.90;;;15.45;;
15635;SDS011;7917;50.818;6.972;2023-04-29T08:30:37;21.70;;;14.88;;
15635;SDS011;7917;50.818;6.972;2023-04-29T08:33:05;22.45;;;14.80;;
15635;SDS011;7917;50.818;6.972;2023-04-29T08:35:32;22.52;;;15.48;;
15635;SDS011;7917;50.818;6.972;2023-04-29T08:38:01;23.55;;;15.75;;
15635;SDS011;7917;50.818;6.972;2023-04-29T08:40:29;23.90;;;14.82;;
15635;SDS011;7917;50.818;6.972;2023-04-29T08:42:58;20.77;;;14.20;;
15635;SDS011;7917;50.818;6.972;2023-04-29T08:45:26;21.60;;;14.93;;
15635;SDS011;7917;50.818;6.972;2023-04-29T08:47:54;22.17;;;14.18;;
15635;SDS011;7917;50.818;6.972;2023-04-29T08:50:22;20.45;;;13.52;;
15635;SDS011;7917;50.818;6.972;2023-04-29T08:52:49;19.80;;;12.82;;
15635;SDS011;7917;50.818;6.972;2023-04-29T08:55:16;18.13;;;12.18;;
15635;SDS011;7917;50.818;6.972;2023-04-29T08:57:43;23.92;;;12.63;;
15635;SDS011;7917;50.818;6.972;2023-04-29T09:00:12;20.52;;;12.25;;
15635;SDS011;7917;50.818;6.972;2023-04-29T09:02:42;19.55;;;12.60;;
15635;SDS011;7917;50.818;6.972;2023-04-29T09:05:11;16.85;;;12.05;;
15635;SDS011;7917;50.818;6.972;2023-04-29T09:07:40;15.93;;;11.05;;
15635;SDS011;7917;50.818;6.972;2023-04-29T09:10:07;16.15;;;10.75;;
15635;SDS011;7917;50.818;6.972;2023-04-29T09:12:35;15.20;;;11.45;;
15635;SDS011;7917;50.818;6.972;2023-04-29T09:15:01;17.77;;;11.73;;
15635;SDS011;7917;50.818;6.972;2023-04-29T09:17:43;17.58;;;12.43;;
15635;SDS011;7917;50.818;6.972;2023-04-29T09:20:26;16.50;;;11.45;;
15635;SDS011;7917;50.818;6.972;2023-04-29T09:22:55;17.02;;;12.68;;
15635;SDS011;7917;50.818;6.972;2023-04-29T09:25:23;17.50;;;11.40;;
15635;SDS011;7917;50.818;6.972;2023-04-29T09:27:51;19.70;;;11.00;;
15635;SDS011;7917;50.818;6.972;2023-04-29T09:30:19;19.80;;;12.35;;
15635;SDS011;7917;50.818;6.972;2023-04-29T09:32:46;18.40;;;13.18;;
15635;SDS011;7917;50.818;6.972;2023-04-29T09:35:30;17.88;;;11.32;;
15635;SDS011;7917;50.818;6.972;2023-04-29T09:38:07;19.88;;;12.93;;
15635;SDS011;7917;50.818;6.972;2023-04-29T09:40:35;18.65;;;12.52;;
15635;SDS011;7917;50.818;6.972;2023-04-29T09:43:10;17.92;;;12.60;;
15635;SDS011;7917;50.818;6.972;2023-04-29T09:45:40;18.30;;;11.98;;
15635;SDS011;7917;50.818;6.972;2023-04-29T09:48:08;16.58;;;10.85;;
15635;SDS011;7917;50.818;6.972;2023-04-29T09:50:36;19.98;;;12.70;;
15635;SDS011;7917;50.818;6.972;2023-04-29T09:53:04;20.10;;;12.93;;
15635;SDS011;7917;50.818;6.972;2023-04-29T09:55:33;21.13;;;14.25;;
15635;SDS011;7917;50.818;6.972;2023-04-29T09:58:00;25.95;;;15.55;;
15635;SDS011;7917;50.818;6.972;2023-04-29T10:00:27;27.48;;;18.15;;
15635;SDS011;7917;50.818;6.972;2023-04-29T10:02:58;26.63;;;16.80;;
15635;SDS011;7917;50.818;6.972;2023-04-29T10:05:27;21.00;;;14.02;;
15635;SDS011;7917;50.818;6.972;2023-04-29T10:07:55;21.77;;;13.85;;
15635;SDS011;7917;50.818;6.972;2023-04-29T10:10:24;23.70;;;14.43;;
15635;SDS011;7917;50.818;6.972;2023-04-29T10:12:53;21.45;;;14.93;;
15635;SDS011;7917;50.818;6.972;2023-04-29T10:15:22;22.52;;;15.20;;
15635;SDS011;7917;50.818;6.972;2023-04-29T10:17:54;22.42;;;15.27;;
15635;SDS011;7917;50.818;6.972;2023-04-29T10:20:28;22.98;;;15.13;;
15635;SDS011;7917;50.818;6.972;2023-04-29T10:22:56;22.52;;;15.88;;
15635;SDS011;7917;50.818;6.972;2023-04-29T10:25:24;24.50;;;16.15;;
15635;SDS011;7917;50.818;6.972;2023-04-29T10:27:52;22.00;;;14.75;;
15635;SDS011;7917;50.818;6.972;2023-04-29T10:30:21;28.73;;;18.33;;
15635;SDS011;7917;50.818;6.972;2023-04-29T10:32:48;31.15;;;21.83;;
15635;SDS011;7917;50.818;6.972;2023-04-29T10:35:16;30.38;;;20.48;;
15635;SDS011;7917;50.818;6.972;2023-04-29T10:37:47;32.03;;;21.13;;
15635;SDS011;7917;50.818;6.972;2023-04-29T10:40:17;27.40;;;18.13;;
15635;SDS011;7917;50.818;6.972;2023-04-29T10:42:51;31.00;;;20.15;;
15635;SDS011;7917;50.818;6.972;2023-04-29T10:45:22;31.98;;;19.65;;
15635;SDS011;7917;50.818;6.972;2023-04-29T10:50:59;29.65;;;18.67;;
15635;SDS011;7917;50.818;6.972;2023-04-29T10:53:27;30.70;;;20.08;;
15635;SDS011;7917;50.818;6.972;2023-04-29T10:55:56;33.92;;;21.70;;
15635;SDS011;7917;50.818;6.972;2023-04-29T10:58:34;36.90;;;23.13;;
15635;SDS011;7917;50.818;6.972;2023-04-29T11:01:09;40.83;;;24.02;;
15635;SDS011;7917;50.818;6.972;2023-04-29T11:03:46;41.53;;;24.88;;
15635;SDS011;7917;50.818;6.972;2023-04-29T11:06:19;32.03;;;20.38;;
15635;SDS011;7917;50.818;6.972;2023-04-29T11:08:58;30.35;;;19.70;;
15635;SDS011;7917;50.818;6.972;2023-04-29T11:11:38;27.25;;;18.15;;
15635;SDS011;7917;50.818;6.972;2023-04-29T11:14:15;25.20;;;17.88;;
15635;SDS011;7917;50.818;6.972;2023-04-29T11:16:46;24.15;;;16.10;;
15635;SDS011;7917;50.818;6.972;2023-04-29T11:19:14;27.23;;;15.52;;
15635;SDS011;7917;50.818;6.972;2023-04-29T11:21:42;20.20;;;14.80;;
15635;SDS011;7917;50.818;6.972;2023-04-29T11:24:11;21.60;;;14.63;;
15635;SDS011;7917;50.818;6.972;2023-04-29T11:26:40;22.33;;;14.32;;
15635;SDS011;7917;50.818;6.972;2023-04-29T11:29:11;21.60;;;14.95;;
15635;SDS011;7917;50.818;6.972;2023-04-29T11:31:40;22.83;;;16.20;;
15635;SDS011;7917;50.818;6.972;2023-04-29T11:34:06;24.60;;;16.08;;
15635;SDS011;7917;50.818;6.972;2023-04-29T11:36:33;27.67;;;17.63;;
15635;SDS011;7917;50.818;6.972;2023-04-29T11:39:01;25.40;;;16.40;;
15635;SDS011;7917;50.818;6.972;2023-04-29T11:41:32;26.95;;;17.77;;
15635;SDS011;7917;50.818;6.972;2023-04-29T11:44:00;26.00;;;17.42;;
15635;SDS011;7917;50.818;6.972;2023-04-29T11:46:29;31.80;;;18.77;;
15635;SDS011;7917;50.818;6.972;2023-04-29T11:48:56;30.60;;;18.80;;
15635;SDS011;7917;50.818;6.972;2023-04-29T11:51:24;39.28;;;23.25;;
15635;SDS011;7917;50.818;6.972;2023-04-29T11:53:52;43.03;;;25.77;;
15635;SDS011;7917;50.818;6.972;2023-04-29T11:56:20;42.33;;;25.08;;
15635;SDS011;7917;50.818;6.972;2023-04-29T11:58:50;41.47;;;26.25;;
15635;SDS011;7917;50.818;6.972;2023-04-29T12:01:22;40.92;;;25.33;;
15635;SDS011;7917;50.818;6.972;2023-04-29T12:03:55;41.70;;;25.20;;
15635;SDS011;7917;50.818;6.972;2023-04-29T12:06:27;38.40;;;26.30;;
15635;SDS011;7917;50.818;6.972;2023-04-29T12:08:54;34.95;;;24.60;;
15635;SDS011;7917;50.818;6.972;2023-04-29T12:11:24;42.20;;;24.83;;
15635;SDS011;7917;50.818;6.972;2023-04-29T12:13:53;50.20;;;29.00;;
15635;SDS011;7917;50.818;6.972;2023-04-29T12:16:20;44.15;;;27.80;;
15635;SDS011;7917;50.818;6.972;2023-04-29T12:18:48;51.38;;;30.67;;
15635;SDS011;7917;50.818;6.972;2023-04-29T12:21:15;47.15;;;30.02;;
15635;SDS011;7917;50.818;6.972;2023-04-29T12:23:42;46.80;;;28.88;;
15635;SDS011;7917;50.818;6.972;2023-04-29T12:26:10;42.60;;;25.08;;
15635;SDS011;7917;50.818;6.972;2023-04-29T12:28:39;42.35;;;26.98;;
15635;SDS011;7917;50.818;6.972;2023-04-29T12:31:07;39.13;;;25.30;;
15635;SDS011;7917;50.818;6.972;2023-04-29T12:33:35;44.55;;;28.25;;
15635;SDS011;7917;50.818;6.972;2023-04-29T12:36:02;48.15;;;28.10;;
15635;SDS011;7917;50.818;6.972;2023-04-29T12:38:29;52.95;;;31.45;;
15635;SDS011;7917;50.818;6.972;2023-04-29T12:40:57;55.10;;;32.88;;
15635;SDS011;7917;50.818;6.972;2023-04-29T12:43:29;61.33;;;33.65;;
15635;SDS011;7917;50.818;6.972;2023-04-29T12:45:59;62.08;;;36.75;;
15635;SDS011;7917;50.818;6.972;2023-04-29T12:48:29;70.30;;;39.85;;
15635;SDS011;7917;50.818;6.972;2023-04-29T12:50:56;66.70;;;38.05;;
15635;SDS011;7917;50.818;6.972;2023-04-29T12:53:24;75.10;;;42.75;;
15635;SDS011;7917;50.818;6.972;2023-04-29T12:55:55;82.03;;;46.95;;
15635;SDS011;7917;50.818;6.972;2023-04-29T12:58:22;82.43;;;45.97;;
15635;SDS011;7917;50.818;6.972;2023-04-29T13:00:49;89.05;;;48.83;;
15635;SDS011;7917;50.818;6.972;2023-04-29T13:03:16;84.70;;;49.40;;
15635;SDS011;7917;50.818;6.972;2023-04-29T13:05:43;92.07;;;50.88;;
15635;SDS011;7917;50.818;6.972;2023-04-29T13:08:17;92.15;;;50.45;;
15635;SDS011;7917;50.818;6.972;2023-04-29T13:10:45;95.13;;;54.50;;
15635;SDS011;7917;50.818;6.972;2023-04-29T13:13:12;94.32;;;51.85;;
15635;SDS011;7917;50.818;6.972;2023-04-29T13:15:39;94.65;;;51.97;;
15635;SDS011;7917;50.818;6.972;2023-04-29T13:18:05;91.40;;;50.88;;
15635;SDS011;7917;50.818;6.972;2023-04-29T13:20:32;92.63;;;49.72;;
15635;SDS011;7917;50.818;6.972;2023-04-29T13:23:03;91.03;;;51.20;;
15635;SDS011;7917;50.818;6.972;2023-04-29T13:25:29;82.25;;;48.97;;
15635;SDS011;7917;50.818;6.972;2023-04-29T13:27:56;87.82;;;50.53;;
15635;SDS011;7917;50.818;6.972;2023-04-29T13:30:23;78.90;;;45.53;;
15635;SDS011;7917;50.818;6.972;2023-04-29T13:32:52;82.65;;;48.28;;
15635;SDS011;7917;50.818;6.972;2023-04-29T13:35:19;81.68;;;46.92;;
15635;SDS011;7917;50.818;6.972;2023-04-29T13:37:46;81.45;;;45.33;;
15635;SDS011;7917;50.818;6.972;2023-04-29T13:40:14;77.93;;;45.38;;
15635;SDS011;7917;50.818;6.972;2023-04-29T13:42:41;74.32;;;42.85;;
15635;SDS011;7917;50.818;6.972;2023-04-29T13:45:08;67.63;;;42.50;;
15635;SDS011;7917;50.818;6.972;2023-04-29T13:47:35;66.63;;;43.90;;
15635;SDS011;7917;50.818;6.972;2023-04-29T13:50:02;67.78;;;39.67;;
15635;SDS011;7917;50.818;6.972;2023-04-29T13:52:29;60.80;;;40.28;;
15635;SDS011;7917;50.818;6.972;2023-04-29T13:54:55;62.85;;;38.72;;
15635;SDS011;7917;50.818;6.972;2023-04-29T13:57:23;63.92;;;39.97;;
15635;SDS011;7917;50.818;6.972;2023-04-29T13:59:51;55.30;;;38.13;;
15635;SDS011;7917;50.818;6.972;2023-04-29T14:02:20;59.03;;;39.58;;
15635;SDS011;7917;50.818;6.972;2023-04-29T14:04:47;60.45;;;38.35;;
15635;SDS011;7917;50.818;6.972;2023-04-29T14:07:19;55.63;;;37.65;;
15635;SDS011;7917;50.818;6.972;2023-04-29T14:09:45;55.63;;;36.90;;
15635;SDS011;7917;50.818;6.972;2023-04-29T14:12:14;57.47;;;36.10;;
15635;SDS011;7917;50.818;6.972;2023-04-29T14:14:42;49.88;;;34.25;;
15635;SDS011;7917;50.818;6.972;2023-04-29T14:17:08;61.33;;;38.00;;
15635;SDS011;7917;50.818;6.972;2023-04-29T14:19:35;55.88;;;37.50;;
15635;SDS011;7917;50.818;6.972;2023-04-29T14:22:02;53.72;;;37.85;;
15635;SDS011;7917;50.818;6.972;2023-04-29T14:24:29;54.65;;;36.28;;
15635;SDS011;7917;50.818;6.972;2023-04-29T14:26:56;68.30;;;42.80;;
15635;SDS011;7917;50.818;6.972;2023-04-29T14:29:23;56.85;;;37.90;;
15635;SDS011;7917;50.818;6.972;2023-04-29T14:31:50;51.55;;;35.22;;
15635;SDS011;7917;50.818;6.972;2023-04-29T14:34:17;55.55;;;36.28;;
15635;SDS011;7917;50.818;6.972;2023-04-29T14:36:44;52.80;;;34.50;;
15635;SDS011;7917;50.818;6.972;2023-04-29T14:39:11;54.63;;;35.53;;
15635;SDS011;7917;50.818;6.972;2023-04-29T14:41:38;52.10;;;37.53;;
15635;SDS011;7917;50.818;6.972;2023-04-29T14:44:05;56.63;;;38.70;;